sensor_id;sensor_type;location;lat;lon;timestamp;pressure;altitude;pressure_sealevel;temperature;humidity
34979;BME280;21185;50.978;13.720;2023-02-13T00:02:25;100344.56;;;6.61;86.14
34979;BME280;21185;50.978;13.720;2023-02-13T00:07:27;100335.97;;;6.61;86.36
34979;BME280;21185;50.978;13.720;2023-02-13T00:12:29;100337.81;;;6.59;86.32
34979;BME280;21185;50.978;13.720;2023-02-13T00:17:39;100333.56;;;6.58;86.11
34979;BME280;21185;50.978;13.720;2023-02-13T00:22:41;100331.91;;;6.57;86.44
34979;BME280;21185;50.978;13.720;2023-02-13T00:27:43;100326.75;;;6.57;86.36
34979;BME280;21185;50.978;13.720;2023-02-13T00:32:45;100320.84;;;6.55;86.29
34979;BME280;21185;50.978;13.720;2023-02-13T00:37:47;100319.28;;;6.52;86.40
34979;BME280;21185;50.978;13.720;2023-02-13T00:42:49;100318.34;;;6.53;86.35
34979;BME280;21185;50.978;13.720;2023-02-13T00:47:50;100315.88;;;6.52;86.33
34979;BME280;21185;50.978;13.720;2023-02-13T00:52:54;100327.75;;;6.54;86.43
34979;BME280;21185;50.978;13.720;2023-02-13T00:57:56;100326.09;;;6.53;86.37
34979;BME280;21185;50.978;13.720;2023-02-13T01:02:58;100331.25;;;6.53;86.44
34979;BME280;21185;50.978;13.720;2023-02-13T01:08:01;100321.78;;;6.54;86.53
34979;BME280;21185;50.978;13.720;2023-02-13T01:13:03;100330.34;;;6.54;86.58
34979;BME280;21185;50.978;13.720;2023-02-13T01:18:08;100320.84;;;6.55;86.43
34979;BME280;21185;50.978;13.720;2023-02-13T01:23:11;100319.94;;;6.56;86.65
34979;BME280;21185;50.978;13.720;2023-02-13T01:28:13;100327.66;;;6.56;86.58
34979;BME280;21185;50.978;13.720;2023-02-13T01:33:15;100313.94;;;6.55;86.59
34979;BME280;21185;50.978;13.720;2023-02-13T01:38:20;100327.59;;;6.57;86.75
34979;BME280;21185;50.978;13.720;2023-02-13T01:43:23;100316.44;;;6.57;86.65
34979;BME280;21185;50.978;13.720;2023-02-13T01:48:26;100316.53;;;6.55;86.53
34979;BME280;21185;50.978;13.720;2023-02-13T01:53:59;100317.34;;;6.56;86.79
34979;BME280;21185;50.978;13.720;2023-02-13T01:59:08;100307.88;;;6.56;86.41
34979;BME280;21185;50.978;13.720;2023-02-13T02:04:17;100312.94;;;6.58;86.64
34979;BME280;21185;50.978;13.720;2023-02-13T02:09:24;100308.53;;;6.60;86.76
34979;BME280;21185;50.978;13.720;2023-02-13T02:14:28;100298.13;;;6.61;86.60
34979;BME280;21185;50.978;13.720;2023-02-13T02:19:41;100291.22;;;6.62;86.59
34979;BME280;21185;50.978;13.720;2023-02-13T02:25:00;100297.13;;;6.64;86.74
34979;BME280;21185;50.978;13.720;2023-02-13T02:35:49;100297.13;;;6.64;86.73
34979;BME280;21185;50.978;13.720;2023-02-13T02:52:21;100294.34;;;6.67;86.99
34979;BME280;21185;50.978;13.720;2023-02-13T02:57:32;100304.59;;;6.68;86.69
34979;BME280;21185;50.978;13.720;2023-02-13T03:02:55;100301.91;;;6.70;86.78
34979;BME280;21185;50.978;13.720;2023-02-13T03:08:16;100303.75;;;6.68;86.80
34979;BME280;21185;50.978;13.720;2023-02-13T03:13:43;100306.25;;;6.69;86.63
34979;BME280;21185;50.978;13.720;2023-02-13T03:18:52;100307.16;;;6.68;86.91
34979;BME280;21185;50.978;13.720;2023-02-13T03:24:45;100313.16;;;6.69;86.75
34979;BME280;21185;50.978;13.720;2023-02-13T03:35:50;100308.00;;;6.69;86.79
34979;BME280;21185;50.978;13.720;2023-02-13T03:41:19;100302.84;;;6.69;86.86
34979;BME280;21185;50.978;13.720;2023-02-13T03:46:25;100312.25;;;6.70;86.63
34979;BME280;21185;50.978;13.720;2023-02-13T03:51:38;100314.81;;;6.70;86.98
34979;BME280;21185;50.978;13.720;2023-02-13T03:56:42;100312.25;;;6.70;86.81
34979;BME280;21185;50.978;13.720;2023-02-13T04:02:17;100308.84;;;6.69;86.91
34979;BME280;21185;50.978;13.720;2023-02-13T04:07:23;100308.91;;;6.68;86.87
34979;BME280;21185;50.978;13.720;2023-02-13T04:12:59;100313.16;;;6.69;86.75
34979;BME280;21185;50.978;13.720;2023-02-13T04:23:12;100311.69;;;6.65;86.88
34979;BME280;21185;50.978;13.720;2023-02-13T04:28:18;100309.09;;;6.65;86.85
34979;BME280;21185;50.978;13.720;2023-02-13T04:33:20;100303.19;;;6.63;86.83
34979;BME280;21185;50.978;13.720;2023-02-13T04:38:21;100306.69;;;6.62;86.73
34979;BME280;21185;50.978;13.720;2023-02-13T04:43:29;100311.84;;;6.62;86.75
34979;BME280;21185;50.978;13.720;2023-02-13T04:48:31;100301.63;;;6.60;86.61
34979;BME280;21185;50.978;13.720;2023-02-13T04:53:33;100309.34;;;6.60;86.92
34979;BME280;21185;50.978;13.720;2023-02-13T04:58:35;100308.63;;;6.58;86.75
34979;BME280;21185;50.978;13.720;2023-02-13T05:03:37;100314.69;;;6.57;87.04
34979;BME280;21185;50.978;13.720;2023-02-13T05:08:38;100307.03;;;6.56;86.83
34979;BME280;21185;50.978;13.720;2023-02-13T05:13:40;100302.78;;;6.55;86.95
34979;BME280;21185;50.978;13.720;2023-02-13T05:18:43;100291.56;;;6.56;86.73
34979;BME280;21185;50.978;13.720;2023-02-13T05:23:46;100311.38;;;6.55;86.84
34979;BME280;21185;50.978;13.720;2023-02-13T05:28:48;100304.53;;;6.54;86.95
34979;BME280;21185;50.978;13.720;2023-02-13T05:34:09;100311.44;;;6.54;86.91
34979;BME280;21185;50.978;13.720;2023-02-13T05:39:10;100301.13;;;6.54;86.96
34979;BME280;21185;50.978;13.720;2023-02-13T05:44:13;100307.97;;;6.55;86.92
34979;BME280;21185;50.978;13.720;2023-02-13T05:49:15;100301.13;;;6.54;86.51
34979;BME280;21185;50.978;13.720;2023-02-13T05:54:17;100306.28;;;6.54;86.76
34979;BME280;21185;50.978;13.720;2023-02-13T05:59:20;100302.97;;;6.52;86.58
34979;BME280;21185;50.978;13.720;2023-02-13T06:04:24;100310.72;;;6.52;86.93
34979;BME280;21185;50.978;13.720;2023-02-13T06:09:28;100316.97;;;6.47;87.03
34979;BME280;21185;50.978;13.720;2023-02-13T06:14:32;100313.53;;;6.47;87.07
34979;BME280;21185;50.978;13.720;2023-02-13T06:19:35;100316.13;;;6.47;86.98
34979;BME280;21185;50.978;13.720;2023-02-13T06:24:37;100319.63;;;6.46;86.98
34979;BME280;21185;50.978;13.720;2023-02-13T06:29:38;100323.94;;;6.45;86.82
34979;BME280;21185;50.978;13.720;2023-02-13T06:34:40;100323.13;;;6.45;86.76
34979;BME280;21185;50.978;13.720;2023-02-13T06:39:42;100329.19;;;6.44;86.80
34979;BME280;21185;50.978;13.720;2023-02-13T06:44:44;100327.44;;;6.44;86.93
34979;BME280;21185;50.978;13.720;2023-02-13T06:49:46;100336.09;;;6.43;86.73
34979;BME280;21185;50.978;13.720;2023-02-13T06:54:48;100348.06;;;6.44;87.00
34979;BME280;21185;50.978;13.720;2023-02-13T06:59:50;100350.56;;;6.46;86.91
34979;BME280;21185;50.978;13.720;2023-02-13T07:04:52;100352.16;;;6.48;86.92
34979;BME280;21185;50.978;13.720;2023-02-13T07:09:54;100357.31;;;6.48;86.96
34979;BME280;21185;50.978;13.720;2023-02-13T07:14:55;100352.22;;;6.47;86.87
34979;BME280;21185;50.978;13.720;2023-02-13T07:19:57;100352.22;;;6.47;86.98
34979;BME280;21185;50.978;13.720;2023-02-13T07:25:00;100352.97;;;6.49;87.00
34979;BME280;21185;50.978;13.720;2023-02-13T07:30:02;100353.72;;;6.51;86.93
34979;BME280;21185;50.978;13.720;2023-02-13T07:35:05;100359.72;;;6.52;86.63
34979;BME280;21185;50.978;13.720;2023-02-13T07:40:07;100356.22;;;6.53;87.02
34979;BME280;21185;50.978;13.720;2023-02-13T07:45:09;100352.72;;;6.54;86.86
34979;BME280;21185;50.978;13.720;2023-02-13T07:50:12;100352.72;;;6.54;86.83
34979;BME280;21185;50.978;13.720;2023-02-13T07:55:14;100357.88;;;6.54;86.80
34979;BME280;21185;50.978;13.720;2023-02-13T08:00:20;100360.38;;;6.55;87.02
34979;BME280;21185;50.978;13.720;2023-02-13T08:05:23;100356.13;;;6.54;86.91
34979;BME280;21185;50.978;13.720;2023-02-13T08:10:24;100364.69;;;6.55;87.04
34979;BME280;21185;50.978;13.720;2023-02-13T08:15:45;100362.22;;;6.53;87.06
34979;BME280;21185;50.978;13.720;2023-02-13T08:20:48;100367.38;;;6.53;86.96
34979;BME280;21185;50.978;13.720;2023-02-13T08:25:50;100371.69;;;6.53;86.90
34979;BME280;21185;50.978;13.720;2023-02-13T08:31:19;100376.03;;;6.52;87.10
34979;BME280;21185;50.978;13.720;2023-02-13T08:36:23;100366.53;;;6.53;87.06
34979;BME280;21185;50.978;13.720;2023-02-13T08:41:25;100371.53;;;6.56;87.18
34979;BME280;21185;50.978;13.720;2023-02-13T08:46:27;100380.19;;;6.55;87.00
34979;BME280;21185;50.978;13.720;2023-02-13T08:51:29;100382.00;;;6.53;86.93
34979;BME280;21185;50.978;13.720;2023-02-13T08:56:31;100385.50;;;6.52;87.13
34979;BME280;21185;50.978;13.720;2023-02-13T09:01:45;100381.25;;;6.50;87.01
34979;BME280;21185;50.978;13.720;2023-02-13T09:06:47;100383.94;;;6.49;87.11
34979;BME280;21185;50.978;13.720;2023-02-13T09:11:49;100393.31;;;6.50;86.94
34979;BME280;21185;50.978;13.720;2023-02-13T09:16:56;100386.34;;;6.52;87.10
34979;BME280;21185;50.978;13.720;2023-02-13T09:21:58;100400.81;;;6.55;87.13
34979;BME280;21185;50.978;13.720;2023-02-13T09:27:00;100400.06;;;6.53;87.25
34979;BME280;21185;50.978;13.720;2023-02-13T09:32:04;100400.06;;;6.53;87.22
34979;BME280;21185;50.978;13.720;2023-02-13T09:37:07;100397.31;;;6.56;87.31
34979;BME280;21185;50.978;13.720;2023-02-13T09:42:30;100392.81;;;6.59;87.20
34979;BME280;21185;50.978;13.720;2023-02-13T09:47:37;100391.81;;;6.62;87.00
34979;BME280;21185;50.978;13.720;2023-02-13T09:52:43;100395.13;;;6.64;87.17
34979;BME280;21185;50.978;13.720;2023-02-13T10:14:22;100407.28;;;6.77;87.20
34979;BME280;21185;50.978;13.720;2023-02-13T10:19:46;100406.09;;;6.83;87.17
34979;BME280;21185;50.978;13.720;2023-02-13T10:25:07;100399.66;;;6.90;87.15
34979;BME280;21185;50.978;13.720;2023-02-13T10:30:21;100402.06;;;6.93;87.28
34979;BME280;21185;50.978;13.720;2023-02-13T10:35:28;100399.97;;;7.00;87.15
34979;BME280;21185;50.978;13.720;2023-02-13T10:40:36;100394.19;;;7.10;87.26
34979;BME280;21185;50.978;13.720;2023-02-13T10:51:25;100368.03;;;7.17;87.22
34979;BME280;21185;50.978;13.720;2023-02-13T10:56:55;100364.44;;;7.19;87.12
34979;BME280;21185;50.978;13.720;2023-02-13T11:07:17;100362.69;;;7.20;86.79
34979;BME280;21185;50.978;13.720;2023-02-13T11:12:31;100354.28;;;7.16;86.55
34979;BME280;21185;50.978;13.720;2023-02-13T11:17:36;100356.22;;;7.12;86.49
34979;BME280;21185;50.978;13.720;2023-02-13T11:22:41;100355.38;;;7.12;86.53
34979;BME280;21185;50.978;13.720;2023-02-13T11:27:44;100356.88;;;7.16;86.46
34979;BME280;21185;50.978;13.720;2023-02-13T11:33:01;100351.25;;;7.24;86.54
34979;BME280;21185;50.978;13.720;2023-02-13T11:43:30;100345.38;;;7.36;86.24
34979;BME280;21185;50.978;13.720;2023-02-13T11:48:36;100343.34;;;7.41;86.19
34979;BME280;21185;50.978;13.720;2023-02-13T11:53:38;100336.88;;;7.48;86.31
34979;BME280;21185;50.978;13.720;2023-02-13T11:58:41;100330.69;;;7.51;86.10
34979;BME280;21185;50.978;13.720;2023-02-13T12:04:00;100323.50;;;7.56;86.18
34979;BME280;21185;50.978;13.720;2023-02-13T12:09:03;100316.22;;;7.62;86.26
34979;BME280;21185;50.978;13.720;2023-02-13T12:14:09;100322.56;;;7.71;86.27
34979;BME280;21185;50.978;13.720;2023-02-13T12:19:17;100311.59;;;7.67;85.66
34979;BME280;21185;50.978;13.720;2023-02-13T12:40:22;100287.47;;;7.81;85.52
34979;BME280;21185;50.978;13.720;2023-02-13T12:45:32;100290.16;;;7.79;85.61
34979;BME280;21185;50.978;13.720;2023-02-13T12:51:00;100283.78;;;7.85;85.73
34979;BME280;21185;50.978;13.720;2023-02-13T13:12:27;100282.59;;;7.76;84.80
34979;BME280;21185;50.978;13.720;2023-02-13T13:17:44;100277.72;;;7.72;84.72
34979;BME280;21185;50.978;13.720;2023-02-13T13:27:58;100279.19;;;7.76;84.45
34979;BME280;21185;50.978;13.720;2023-02-13T13:33:05;100275.03;;;7.73;84.45
34979;BME280;21185;50.978;13.720;2023-02-13T13:49:19;100278.94;;;7.66;83.86
34979;BME280;21185;50.978;13.720;2023-02-13T13:54:32;100277.44;;;7.62;83.78
34979;BME280;21185;50.978;13.720;2023-02-13T14:04:38;100282.16;;;7.56;83.57
34979;BME280;21185;50.978;13.720;2023-02-13T14:09:44;100278.75;;;7.55;83.43
34979;BME280;21185;50.978;13.720;2023-02-13T14:14:46;100278.84;;;7.54;83.35
34979;BME280;21185;50.978;13.720;2023-02-13T14:19:51;100293.53;;;7.53;83.56
34979;BME280;21185;50.978;13.720;2023-02-13T14:24:56;100294.53;;;7.51;83.63
34979;BME280;21185;50.978;13.720;2023-02-13T14:30:00;100290.38;;;7.48;83.40
34979;BME280;21185;50.978;13.720;2023-02-13T14:35:17;100283.56;;;7.47;83.54
34979;BME280;21185;50.978;13.720;2023-02-13T14:45:27;100278.31;;;7.34;83.28
34979;BME280;21185;50.978;13.720;2023-02-13T14:50:43;100281.16;;;7.30;83.15
34979;BME280;21185;50.978;13.720;2023-02-13T14:55:53;100277.28;;;7.23;83.38
34979;BME280;21185;50.978;13.720;2023-02-13T15:01:04;100257.75;;;7.19;83.27
34979;BME280;21185;50.978;13.720;2023-02-13T15:06:13;100259.78;;;7.13;82.99
34979;BME280;21185;50.978;13.720;2023-02-13T15:11:41;100258.47;;;7.06;83.02
34979;BME280;21185;50.978;13.720;2023-02-13T15:16:46;100232.28;;;6.98;82.61
34979;BME280;21185;50.978;13.720;2023-02-13T15:21:58;100242.06;;;6.93;82.35
34979;BME280;21185;50.978;13.720;2023-02-13T15:27:05;100246.56;;;6.90;82.67
34979;BME280;21185;50.978;13.720;2023-02-13T15:32:18;100239.19;;;6.83;82.62
34979;BME280;21185;50.978;13.720;2023-02-13T15:37:27;100238.47;;;6.81;82.32
34979;BME280;21185;50.978;13.720;2023-02-13T15:42:31;100231.91;;;6.76;82.40
34979;BME280;21185;50.978;13.720;2023-02-13T15:47:33;100224.34;;;6.73;82.27
34979;BME280;21185;50.978;13.720;2023-02-13T15:52:37;100230.44;;;6.72;82.41
34979;BME280;21185;50.978;13.720;2023-02-13T15:57:40;100233.00;;;6.72;82.34
34979;BME280;21185;50.978;13.720;2023-02-13T16:02:45;100248.56;;;6.70;82.55
34979;BME280;21185;50.978;13.720;2023-02-13T16:07:51;100253.81;;;6.69;82.42
34979;BME280;21185;50.978;13.720;2023-02-13T16:12:55;100249.66;;;6.66;82.62
34979;BME280;21185;50.978;13.720;2023-02-13T16:17:59;100238.53;;;6.66;82.52
34979;BME280;21185;50.978;13.720;2023-02-13T16:23:15;100254.09;;;6.64;82.51
34979;BME280;21185;50.978;13.720;2023-02-13T16:28:22;100248.28;;;6.61;82.54
34979;BME280;21185;50.978;13.720;2023-02-13T16:33:31;100244.97;;;6.59;82.48
34979;BME280;21185;50.978;13.720;2023-02-13T16:38:44;100247.72;;;6.56;82.64
34979;BME280;21185;50.978;13.720;2023-02-13T16:54:14;100251.47;;;6.50;82.51
34979;BME280;21185;50.978;13.720;2023-02-13T16:59:39;100244.47;;;6.52;82.50
34979;BME280;21185;50.978;13.720;2023-02-13T17:15:30;100238.31;;;6.55;82.43
34979;BME280;21185;50.978;13.720;2023-02-13T17:20:33;100232.59;;;6.49;82.40
34979;BME280;21185;50.978;13.720;2023-02-13T17:25:36;100224.19;;;6.46;82.59
34979;BME280;21185;50.978;13.720;2023-02-13T17:30:39;100223.47;;;6.44;82.54
34979;BME280;21185;50.978;13.720;2023-02-13T17:35:42;100221.16;;;6.39;82.45
34979;BME280;21185;50.978;13.720;2023-02-13T17:40:44;100212.66;;;6.37;82.39
34979;BME280;21185;50.978;13.720;2023-02-13T17:45:48;100216.34;;;6.33;82.42
34979;BME280;21185;50.978;13.720;2023-02-13T17:50:50;100226.66;;;6.33;82.38
34979;BME280;21185;50.978;13.720;2023-02-13T17:55:53;100237.81;;;6.34;82.40
34979;BME280;21185;50.978;13.720;2023-02-13T18:00:54;100232.56;;;6.35;82.50
34979;BME280;21185;50.978;13.720;2023-02-13T18:05:57;100210.34;;;6.33;82.13
34979;BME280;21185;50.978;13.720;2023-02-13T18:10:59;100208.69;;;6.32;82.50
34979;BME280;21185;50.978;13.720;2023-02-13T18:16:07;100217.34;;;6.31;82.26
34979;BME280;21185;50.978;13.720;2023-02-13T18:21:09;100243.03;;;6.32;82.49
34979;BME280;21185;50.978;13.720;2023-02-13T18:26:14;100225.00;;;6.32;82.57
34979;BME280;21185;50.978;13.720;2023-02-13T18:31:16;100232.81;;;6.31;82.55
34979;BME280;21185;50.978;13.720;2023-02-13T18:36:18;100225.00;;;6.32;82.43
34979;BME280;21185;50.978;13.720;2023-02-13T18:41:20;100229.16;;;6.35;82.45
34979;BME280;21185;50.978;13.720;2023-02-13T18:46:22;100224.81;;;6.35;82.77
34979;BME280;21185;50.978;13.720;2023-02-13T18:51:24;100240.13;;;6.38;82.64
34979;BME280;21185;50.978;13.720;2023-02-13T18:56:27;100221.16;;;6.39;82.78
34979;BME280;21185;50.978;13.720;2023-02-13T19:01:29;100214.31;;;6.38;82.68
34979;BME280;21185;50.978;13.720;2023-02-13T19:06:32;100203.53;;;6.32;82.44
34979;BME280;21185;50.978;13.720;2023-02-13T19:11:35;100204.53;;;6.29;82.91
34979;BME280;21185;50.978;13.720;2023-02-13T19:16:39;100201.88;;;6.31;82.92
34979;BME280;21185;50.978;13.720;2023-02-13T19:21:41;100194.88;;;6.33;82.79
34979;BME280;21185;50.978;13.720;2023-02-13T19:26:43;100201.69;;;6.34;82.64
34979;BME280;21185;50.978;13.720;2023-02-13T19:31:45;100197.38;;;6.34;82.70
34979;BME280;21185;50.978;13.720;2023-02-13T19:36:47;100200.88;;;6.33;82.88
34979;BME280;21185;50.978;13.720;2023-02-13T19:41:49;100215.50;;;6.33;82.70
34979;BME280;21185;50.978;13.720;2023-02-13T19:46:51;100242.13;;;6.33;82.72
34979;BME280;21185;50.978;13.720;2023-02-13T19:51:53;100235.22;;;6.34;82.78
34979;BME280;21185;50.978;13.720;2023-02-13T19:56:55;100233.47;;;6.34;82.91
34979;BME280;21185;50.978;13.720;2023-02-13T20:02:02;100241.22;;;6.34;82.91
34979;BME280;21185;50.978;13.720;2023-02-13T20:07:04;100236.06;;;6.34;82.77
34979;BME280;21185;50.978;13.720;2023-02-13T20:12:06;100241.88;;;6.38;82.81
34979;BME280;21185;50.978;13.720;2023-02-13T20:17:08;100240.13;;;6.38;82.91
34979;BME280;21185;50.978;13.720;2023-02-13T20:22:10;100241.03;;;6.37;82.76
34979;BME280;21185;50.978;13.720;2023-02-13T20:27:17;100252.09;;;6.39;83.05
34979;BME280;21185;50.978;13.720;2023-02-13T20:32:19;100250.25;;;6.41;83.04
34979;BME280;21185;50.978;13.720;2023-02-13T20:37:24;100248.59;;;6.40;82.98
34979;BME280;21185;50.978;13.720;2023-02-13T20:42:26;100247.75;;;6.40;82.96
34979;BME280;21185;50.978;13.720;2023-02-13T20:47:28;100240.03;;;6.40;82.92
34979;BME280;21185;50.978;13.720;2023-02-13T20:52:30;100241.69;;;6.41;82.82
34979;BME280;21185;50.978;13.720;2023-02-13T20:57:35;100249.41;;;6.41;82.91
34979;BME280;21185;50.978;13.720;2023-02-13T21:02:37;100255.31;;;6.43;82.88
34979;BME280;21185;50.978;13.720;2023-02-13T21:07:39;100253.66;;;6.42;82.81
34979;BME280;21185;50.978;13.720;2023-02-13T21:12:41;100250.25;;;6.41;83.07
34979;BME280;21185;50.978;13.720;2023-02-13T21:17:44;100239.94;;;6.41;82.71
34979;BME280;21185;50.978;13.720;2023-02-13T21:22:46;100245.09;;;6.41;82.72
34979;BME280;21185;50.978;13.720;2023-02-13T21:27:48;100258.06;;;6.40;82.91
34979;BME280;21185;50.978;13.720;2023-02-13T21:32:50;100251.91;;;6.42;83.04
34979;BME280;21185;50.978;13.720;2023-02-13T21:37:52;100248.41;;;6.43;83.11
34979;BME280;21185;50.978;13.720;2023-02-13T21:42:55;100249.25;;;6.44;82.79
34979;BME280;21185;50.978;13.720;2023-02-13T21:47:57;100248.50;;;6.42;82.84
34979;BME280;21185;50.978;13.720;2023-02-13T21:52:59;100248.41;;;6.43;82.82
34979;BME280;21185;50.978;13.720;2023-02-13T21:58:00;100249.34;;;6.42;82.93
34979;BME280;21185;50.978;13.720;2023-02-13T22:03:02;100251.09;;;6.42;82.92
34979;BME280;21185;50.978;13.720;2023-02-13T22:08:04;100245.09;;;6.41;83.06
34979;BME280;21185;50.978;13.720;2023-02-13T22:13:12;100250.16;;;6.43;82.83
34979;BME280;21185;50.978;13.720;2023-02-13T22:18:14;100249.50;;;6.39;82.87
34979;BME280;21185;50.978;13.720;2023-02-13T22:23:16;100257.25;;;6.39;82.76
34979;BME280;21185;50.978;13.720;2023-02-13T22:28:18;100255.59;;;6.38;82.87
34979;BME280;21185;50.978;13.720;2023-02-13T22:33:20;100263.22;;;6.40;82.80
34979;BME280;21185;50.978;13.720;2023-02-13T22:38:22;100277.03;;;6.39;83.15
34979;BME280;21185;50.978;13.720;2023-02-13T22:43:23;100277.97;;;6.38;82.96
34979;BME280;21185;50.978;13.720;2023-02-13T22:48:37;100274.56;;;6.37;83.21
34979;BME280;21185;50.978;13.720;2023-02-13T22:53:39;100284.88;;;6.37;83.00
34979;BME280;21185;50.978;13.720;2023-02-13T22:58:41;100281.38;;;6.38;83.01
34979;BME280;21185;50.978;13.720;2023-02-13T23:03:43;100289.09;;;6.38;83.01
34979;BME280;21185;50.978;13.720;2023-02-13T23:08:45;100294.19;;;6.40;83.01
34979;BME280;21185;50.978;13.720;2023-02-13T23:13:49;100295.94;;;6.39;83.07
34979;BME280;21185;50.978;13.720;2023-02-13T23:18:55;100295.94;;;6.39;83.09
34979;BME280;21185;50.978;13.720;2023-02-13T23:23:57;100298.59;;;6.38;83.05
34979;BME280;21185;50.978;13.720;2023-02-13T23:28:59;100296.00;;;6.38;83.05
34979;BME280;21185;50.978;13.720;2023-02-13T23:34:01;100301.16;;;6.38;83.02
34979;BME280;21185;50.978;13.720;2023-02-13T23:39:03;100299.41;;;6.38;82.98
34979;BME280;21185;50.978;13.720;2023-02-13T23:44:05;100296.00;;;6.38;83.19
34979;BME280;21185;50.978;13.720;2023-02-13T23:49:07;100284.88;;;6.37;83.00
34979;BME280;21185;50.978;13.720;2023-02-13T23:54:13;100293.53;;;6.36;83.17
34979;BME280;21185;50.978;13.720;2023-02-13T23:59:17;100287.53;;;6.36;83.14
